createdAt,value
2019-03-15T00:00:13.369Z,85.10
2019-03-15T00:01:13.363Z,86.13
2019-03-15T00:02:13.346Z,85.31
2019-03-15T00:03:13.336Z,85.31
2019-03-15T00:04:13.365Z,85.31
2019-03-15T00:05:13.317Z,85.52
2019-03-15T00:06:13.302Z,85.41
2019-03-15T00:07:13.291Z,85.52
2019-03-15T00:08:13.280Z,85.31
2019-03-15T00:09:13.303Z,84.44
2019-03-15T00:10:14.266Z,84.34
2019-03-15T00:11:13.247Z,84.55
2019-03-15T00:12:13.235Z,84.55
2019-03-15T00:13:13.226Z,84.34
2019-03-15T00:14:13.235Z,85.06
2019-03-15T00:15:13.201Z,84.75
2019-03-15T00:16:13.205Z,84.75
2019-03-15T00:17:13.177Z,84.86
2019-03-15T00:18:13.168Z,84.86
2019-03-15T00:19:13.158Z,85.27
2019-03-15T00:20:13.171Z,84.96
2019-03-15T00:21:13.134Z,84.86
2019-03-15T00:22:13.124Z,84.23
2019-03-15T00:23:13.114Z,85.06
2019-03-15T00:24:13.099Z,85.27
2019-03-15T00:25:13.107Z,85.06
2019-03-15T00:26:13.111Z,83.83
2019-03-15T00:27:13.069Z,84.65
2019-03-15T00:28:13.068Z,84.75
2019-03-15T00:29:13.049Z,85.00
2019-03-15T00:30:13.033Z,85.10
2019-03-15T00:31:13.048Z,85.17
2019-03-15T00:32:13.012Z,85.83
2019-03-15T00:33:12.999Z,86.03
2019-03-15T00:34:12.994Z,85.06
2019-03-15T00:35:12.978Z,85.06
2019-03-15T00:36:12.997Z,84.23
2019-03-15T00:37:12.957Z,84.96
2019-03-15T00:38:12.951Z,84.86
2019-03-15T00:39:12.937Z,84.34
2019-03-15T00:40:12.923Z,84.96
2019-03-15T00:41:12.927Z,84.89
2019-03-15T00:42:12.922Z,85.27
2019-03-15T00:43:12.888Z,84.89
2019-03-15T00:44:12.877Z,84.34
2019-03-15T00:45:12.875Z,84.13
2019-03-15T00:46:12.877Z,84.55
2019-03-15T00:47:12.867Z,84.65
2019-03-15T00:48:12.830Z,85.06
2019-03-15T00:49:12.835Z,84.65
2019-03-15T00:50:12.940Z,84.75
2019-03-15T00:51:12.797Z,84.96
2019-03-15T00:52:12.785Z,84.89
2019-03-15T00:53:12.775Z,86.03
2019-03-15T00:54:12.795Z,84.69
2019-03-15T00:55:12.758Z,85.17
2019-03-15T00:56:12.743Z,84.96
2019-03-15T00:57:12.731Z,84.89
2019-03-15T00:58:12.744Z,85.21
2019-03-15T00:59:12.714Z,85.31
2019-03-15T01:00:12.697Z,84.86
2019-03-15T01:01:12.685Z,84.89
2019-03-15T01:02:12.709Z,85.21
2019-03-15T01:03:12.665Z,85.00
2019-03-15T01:04:12.651Z,84.89
2019-03-15T01:05:12.641Z,84.69
2019-03-15T01:06:12.643Z,85.83
2019-03-15T01:07:12.640Z,85.72
2019-03-15T01:08:12.606Z,85.41
2019-03-15T01:09:12.621Z,86.03
2019-03-15T01:10:12.585Z,85.72
2019-03-15T01:11:12.578Z,85.31
2019-03-15T01:12:12.561Z,85.41
2019-03-15T01:13:12.567Z,85.10
2019-03-15T01:14:12.541Z,85.21
2019-03-15T01:15:12.558Z,85.10
2019-03-15T01:16:12.518Z,84.96
2019-03-15T01:17:12.508Z,84.75
2019-03-15T01:18:12.514Z,85.10
2019-03-15T01:19:12.486Z,84.65
2019-03-15T01:20:12.475Z,84.65
2019-03-15T01:21:12.497Z,83.41
2019-03-15T01:22:12.452Z,83.37
2019-03-15T01:23:12.443Z,83.06
2019-03-15T01:24:12.427Z,83.68
2019-03-15T01:25:12.421Z,83.83
2019-03-15T01:26:12.434Z,84.20
2019-03-15T01:27:12.421Z,84.44
2019-03-15T01:28:12.387Z,84.55
2019-03-15T01:29:12.396Z,84.65
2019-03-15T01:30:12.361Z,85.10
2019-03-15T01:31:12.350Z,85.00
2019-03-15T01:32:12.366Z,84.89
2019-03-15T01:33:12.327Z,85.10
2019-03-15T01:34:12.316Z,85.10
2019-03-15T01:35:12.309Z,85.00
2019-03-15T01:36:12.318Z,85.00
2019-03-15T01:37:12.306Z,85.00
2019-03-15T01:38:12.307Z,84.48
2019-03-15T01:39:12.264Z,84.86
2019-03-15T01:40:12.247Z,84.86
2019-03-15T01:41:12.237Z,84.96
2019-03-15T01:42:12.231Z,84.03
2019-03-15T01:43:13.208Z,84.03
2019-03-15T01:44:12.229Z,83.51
2019-03-15T01:45:12.192Z,83.62
2019-03-15T01:46:12.182Z,84.44
2019-03-15T01:47:12.172Z,83.31
2019-03-15T01:48:12.157Z,83.58
2019-03-15T01:49:12.179Z,83.99
2019-03-15T01:50:12.138Z,84.41
2019-03-15T01:51:12.129Z,84.51
2019-03-15T01:52:12.113Z,84.72
2019-03-15T01:53:12.103Z,84.13
2019-03-15T01:54:12.117Z,83.58
2019-03-15T01:55:12.086Z,83.78
2019-03-15T01:56:12.078Z,83.72
2019-03-15T01:57:12.057Z,84.61
2019-03-15T01:58:12.046Z,84.03
2019-03-15T01:59:12.063Z,84.09
2019-03-15T02:00:12.025Z,84.41
2019-03-15T02:01:12.015Z,84.23
2019-03-15T02:02:12.000Z,83.68
2019-03-15T02:03:12.030Z,83.00
2019-03-15T02:04:11.981Z,83.20
2019-03-15T02:05:11.974Z,83.27
2019-03-15T02:06:11.984Z,83.06
2019-03-15T02:07:11.947Z,83.41
2019-03-15T02:08:11.933Z,83.17
2019-03-15T02:09:11.956Z,82.75
2019-03-15T02:10:11.913Z,83.41
2019-03-15T02:11:11.906Z,83.78
2019-03-15T02:12:11.912Z,83.48
2019-03-15T02:13:11.989Z,83.62
2019-03-15T02:14:11.890Z,83.41
2019-03-15T02:15:11.857Z,83.31
2019-03-15T02:16:11.845Z,83.10
2019-03-15T02:17:11.833Z,83.62
2019-03-15T02:18:11.822Z,83.58
2019-03-15T02:19:11.832Z,84.34
2019-03-15T02:20:11.802Z,83.37
2019-03-15T02:21:11.788Z,83.41
2019-03-15T02:22:14.464Z,83.51
2019-03-15T02:23:11.815Z,83.10
2019-03-15T02:24:11.756Z,83.41
2019-03-15T02:25:11.744Z,83.62
2019-03-15T02:26:11.733Z,81.93
2019-03-15T02:27:11.721Z,81.82
2019-03-15T02:28:11.736Z,82.14
2019-03-15T02:29:11.723Z,82.14
2019-03-15T02:30:11.692Z,82.03
2019-03-15T02:31:11.680Z,81.82
2019-03-15T02:32:12.897Z,82.24
2019-03-15T02:33:11.689Z,83.06
2019-03-15T02:34:11.645Z,82.96
2019-03-15T02:35:11.670Z,83.00
2019-03-15T02:36:11.621Z,83.31
2019-03-15T02:37:11.609Z,82.03
2019-03-15T02:38:11.629Z,82.86
2019-03-15T02:39:11.589Z,82.65
2019-03-15T02:40:12.832Z,82.34
2019-03-15T02:41:11.566Z,83.58
2019-03-15T02:42:11.575Z,83.68
2019-03-15T02:43:11.543Z,82.65
2019-03-15T02:44:12.547Z,81.62
2019-03-15T02:45:11.525Z,81.62
2019-03-15T02:46:11.513Z,81.58
2019-03-15T02:47:11.522Z,81.82
2019-03-15T02:48:11.487Z,81.31
2019-03-15T02:49:11.477Z,82.14
2019-03-15T02:50:11.464Z,81.58
2019-03-15T02:51:11.456Z,81.48
2019-03-15T02:52:11.466Z,81.62
2019-03-15T02:53:11.431Z,81.62
2019-03-15T02:54:11.494Z,80.90
2019-03-15T02:55:11.410Z,81.82
2019-03-15T02:56:11.424Z,81.93
2019-03-15T02:57:11.385Z,81.82
2019-03-15T02:58:11.405Z,82.14
2019-03-15T02:59:11.362Z,81.10
2019-03-15T03:00:11.350Z,81.72
2019-03-15T03:01:11.348Z,81.37
2019-03-15T03:02:11.332Z,80.86
2019-03-15T03:03:11.343Z,81.48
2019-03-15T03:04:11.340Z,81.51
2019-03-15T03:05:11.300Z,82.03
2019-03-15T03:06:11.286Z,81.79
2019-03-15T03:07:11.272Z,82.45
2019-03-15T03:08:11.285Z,83.27
2019-03-15T03:09:11.253Z,82.14
2019-03-15T03:10:11.261Z,82.45
2019-03-15T03:11:11.243Z,82.75
2019-03-15T03:12:11.217Z,81.62
2019-03-15T03:13:11.243Z,80.90
2019-03-15T03:14:11.197Z,80.65
2019-03-15T03:15:11.185Z,80.65
2019-03-15T03:16:11.170Z,80.14
2019-03-15T03:17:11.165Z,80.44
2019-03-15T03:18:11.176Z,81.17
2019-03-15T03:19:11.145Z,81.51
2019-03-15T03:20:11.128Z,81.41
2019-03-15T03:21:11.117Z,81.41
2019-03-15T03:22:11.117Z,82.24
2019-03-15T03:23:11.123Z,82.03
2019-03-15T03:24:11.089Z,82.38
2019-03-15T03:25:11.077Z,82.17
2019-03-15T03:26:11.063Z,81.93
2019-03-15T03:27:11.047Z,82.79
2019-03-15T03:28:11.059Z,83.72
2019-03-15T03:29:11.055Z,83.00
2019-03-15T03:30:11.053Z,82.89
2019-03-15T03:31:11.261Z,83.51
2019-03-15T03:32:13.329Z,82.65
2019-03-15T03:33:12.321Z,81.96
2019-03-15T03:34:12.661Z,82.28
2019-03-15T03:35:11.131Z,82.34
2019-03-15T03:36:10.948Z,82.65
2019-03-15T03:37:10.942Z,82.69
2019-03-15T03:38:12.283Z,82.14
2019-03-15T03:39:10.956Z,81.51
2019-03-15T03:40:10.902Z,81.62
2019-03-15T03:41:10.892Z,82.03
2019-03-15T03:42:10.889Z,81.48
2019-03-15T03:43:10.868Z,82.34
2019-03-15T03:44:10.894Z,81.10
2019-03-15T03:45:10.848Z,81.21
2019-03-15T03:46:10.835Z,81.62
2019-03-15T03:47:10.841Z,82.34
2019-03-15T03:48:10.815Z,82.14
2019-03-15T03:49:10.802Z,81.82
2019-03-15T03:50:10.811Z,82.03
2019-03-15T03:51:10.785Z,81.93
2019-03-15T03:52:10.771Z,82.14
2019-03-15T03:53:10.757Z,81.93
2019-03-15T03:54:10.773Z,81.62
2019-03-15T03:55:10.735Z,82.14
2019-03-15T03:56:10.725Z,82.34
2019-03-15T03:57:10.739Z,82.14
2019-03-15T03:58:10.724Z,82.03
2019-03-15T03:59:10.694Z,81.31
2019-03-15T04:00:10.680Z,82.14
2019-03-15T04:01:10.669Z,82.24
2019-03-15T04:02:10.678Z,81.93
2019-03-15T04:03:10.648Z,81.62
2019-03-15T04:04:10.632Z,81.51
2019-03-15T04:05:10.626Z,82.03
2019-03-15T04:06:10.616Z,81.93
2019-03-15T04:07:10.622Z,82.34
2019-03-15T04:08:10.620Z,81.93
2019-03-15T04:09:10.578Z,82.71
2019-03-15T04:10:10.570Z,82.03
2019-03-15T04:11:10.555Z,81.82
2019-03-15T04:12:10.544Z,82.24
2019-03-15T04:13:10.558Z,82.45
2019-03-15T04:14:10.545Z,83.06
2019-03-15T04:15:10.521Z,83.27
2019-03-15T04:16:10.502Z,82.24
2019-03-15T04:17:10.487Z,81.93
2019-03-15T04:18:10.479Z,81.93
2019-03-15T04:19:10.493Z,82.03
2019-03-15T04:20:10.457Z,82.34
2019-03-15T04:21:10.445Z,82.24
2019-03-15T04:22:10.441Z,81.89
2019-03-15T04:23:10.445Z,81.79
2019-03-15T04:24:10.409Z,81.62
2019-03-15T04:25:10.397Z,82.24
2019-03-15T04:26:10.412Z,82.34
2019-03-15T04:27:10.377Z,82.86
2019-03-15T04:28:10.387Z,82.03
2019-03-15T04:29:10.356Z,82.34
2019-03-15T04:30:10.376Z,82.45
2019-03-15T04:31:10.329Z,82.45
2019-03-15T04:32:10.320Z,81.93
2019-03-15T04:33:10.311Z,82.45
2019-03-15T04:34:10.301Z,82.55
2019-03-15T04:35:10.320Z,82.45
2019-03-15T04:36:10.274Z,82.14
2019-03-15T04:37:10.264Z,82.14
2019-03-15T04:38:10.346Z,82.45
2019-03-15T04:39:13.664Z,82.03
2019-03-15T04:40:10.259Z,82.14
2019-03-15T04:41:10.219Z,82.14
2019-03-15T04:42:10.207Z,82.30
2019-03-15T04:43:10.224Z,82.03
2019-03-15T04:44:10.188Z,81.82
2019-03-15T04:45:10.183Z,82.03
2019-03-15T04:46:10.162Z,81.68
2019-03-15T04:47:10.151Z,81.82
2019-03-15T04:48:10.163Z,82.34
2019-03-15T04:49:10.128Z,82.03
2019-03-15T04:50:10.130Z,82.03
2019-03-15T04:51:10.112Z,82.14
2019-03-15T04:52:10.097Z,81.93
2019-03-15T04:53:10.099Z,81.93
2019-03-15T04:54:10.079Z,81.62
2019-03-15T04:55:10.085Z,81.27
2019-03-15T04:56:10.052Z,81.07
2019-03-15T04:57:10.061Z,81.79
2019-03-15T04:58:10.030Z,82.03
2019-03-15T04:59:10.017Z,81.93
2019-03-15T05:00:10.005Z,81.51
2019-03-15T05:01:10.001Z,82.03
2019-03-15T05:02:10.008Z,81.62
2019-03-15T05:03:09.996Z,82.14
2019-03-15T05:04:09.961Z,82.14
2019-03-15T05:05:09.963Z,81.82
2019-03-15T05:06:09.941Z,82.30
2019-03-15T05:07:09.951Z,81.82
2019-03-15T05:08:09.915Z,81.58
2019-03-15T05:09:09.932Z,81.93
2019-03-15T05:10:09.894Z,82.03
2019-03-15T05:11:09.902Z,81.82
2019-03-15T05:12:09.890Z,81.93
2019-03-15T05:13:09.861Z,82.24
2019-03-15T05:14:09.907Z,82.03
2019-03-15T05:15:09.837Z,82.03
2019-03-15T05:16:09.826Z,82.24
2019-03-15T05:17:09.819Z,82.34
2019-03-15T05:18:09.830Z,81.62
2019-03-15T05:19:09.797Z,81.51
2019-03-15T05:20:09.781Z,82.24
2019-03-15T05:21:09.776Z,81.51
2019-03-15T05:22:09.758Z,81.93
2019-03-15T05:23:09.781Z,82.24
2019-03-15T05:24:09.737Z,82.24
2019-03-15T05:25:09.728Z,81.62
2019-03-15T05:26:09.714Z,81.62
2019-03-15T05:27:09.705Z,80.96
2019-03-15T05:28:09.714Z,81.48
2019-03-15T05:29:09.684Z,81.48
2019-03-15T05:30:09.673Z,81.58
2019-03-15T05:31:09.659Z,81.58
2019-03-15T05:32:09.647Z,81.00
2019-03-15T05:33:09.668Z,80.65
2019-03-15T05:34:09.624Z,80.96
2019-03-15T05:35:09.616Z,81.68
2019-03-15T05:36:09.605Z,82.20
2019-03-15T05:37:09.616Z,82.03
2019-03-15T05:38:09.584Z,81.51
2019-03-15T05:39:09.573Z,81.48
2019-03-15T05:40:09.561Z,81.41
2019-03-15T05:41:09.576Z,82.24
2019-03-15T05:42:09.541Z,81.82
2019-03-15T05:43:09.524Z,81.93
2019-03-15T05:44:09.585Z,81.82
2019-03-15T05:45:09.509Z,82.45
2019-03-15T05:46:09.513Z,81.00
2019-03-15T05:47:09.478Z,80.14
2019-03-15T05:48:09.467Z,81.10
2019-03-15T05:49:09.457Z,81.41
2019-03-15T05:50:09.447Z,82.03
2019-03-15T05:51:09.460Z,82.24
2019-03-15T05:52:09.427Z,82.14
2019-03-15T05:53:09.413Z,81.93
2019-03-15T05:54:09.400Z,82.24
2019-03-15T05:55:09.395Z,82.30
2019-03-15T05:56:09.409Z,81.99
2019-03-15T05:57:09.378Z,81.93
2019-03-15T05:58:09.355Z,82.03
2019-03-15T05:59:09.344Z,81.93
2019-03-15T06:00:09.334Z,81.79
2019-03-15T06:01:09.348Z,82.34
2019-03-15T06:02:09.314Z,82.40
2019-03-15T06:03:12.310Z,81.27
2019-03-15T06:04:09.289Z,81.99
2019-03-15T06:05:09.311Z,81.68
2019-03-15T06:06:09.272Z,81.79
2019-03-15T06:07:09.255Z,81.58
2019-03-15T06:08:09.246Z,82.20
2019-03-15T06:09:09.232Z,81.48
2019-03-15T06:10:09.247Z,80.76
2019-03-15T06:11:09.210Z,80.62
2019-03-15T06:12:09.204Z,80.86
2019-03-15T06:13:09.221Z,81.65
2019-03-15T06:14:09.177Z,80.96
2019-03-15T06:15:09.166Z,80.76
2019-03-15T06:16:09.160Z,80.14
2019-03-15T06:17:09.145Z,80.04
2019-03-15T06:18:09.158Z,80.51
2019-03-15T06:19:09.123Z,79.93
2019-03-15T06:20:09.112Z,79.83
2019-03-15T06:21:09.100Z,79.62
2019-03-15T06:22:09.089Z,80.04
2019-03-15T06:23:09.099Z,79.72
2019-03-15T06:24:09.067Z,79.72
2019-03-15T06:25:09.058Z,79.21
2019-03-15T06:26:09.047Z,79.90
2019-03-15T06:27:09.055Z,79.31
2019-03-15T06:28:09.028Z,79.72
2019-03-15T06:29:09.011Z,79.83
2019-03-15T06:30:08.997Z,79.90
2019-03-15T06:31:08.986Z,80.20
2019-03-15T06:32:08.990Z,79.62
2019-03-15T06:33:08.966Z,79.62
2019-03-15T06:34:08.959Z,79.48
2019-03-15T06:35:08.944Z,79.79
2019-03-15T06:36:08.932Z,80.00
2019-03-15T06:37:08.947Z,79.72
2019-03-15T06:38:08.910Z,79.41
2019-03-15T06:39:08.928Z,79.62
2019-03-15T06:40:08.887Z,80.00
2019-03-15T06:41:08.875Z,79.83
2019-03-15T06:42:08.863Z,79.72
2019-03-15T06:43:08.853Z,79.31
2019-03-15T06:44:08.861Z,79.17
2019-03-15T06:45:08.832Z,80.00
2019-03-15T06:46:08.820Z,79.69
2019-03-15T06:47:08.808Z,79.90
2019-03-15T06:48:08.797Z,79.58
2019-03-15T06:49:08.807Z,79.69
2019-03-15T06:50:08.775Z,79.62
2019-03-15T06:51:09.386Z,79.93
2019-03-15T06:52:08.755Z,79.48
2019-03-15T06:53:08.751Z,79.58
2019-03-15T06:54:11.783Z,79.72
2019-03-15T06:55:08.729Z,80.24
2019-03-15T06:56:08.708Z,80.10
2019-03-15T06:57:08.697Z,79.83
2019-03-15T06:58:08.712Z,80.20
2019-03-15T06:59:08.674Z,80.72
2019-03-15T07:00:08.680Z,80.62
2019-03-15T07:01:08.654Z,79.52
2019-03-15T07:02:08.650Z,79.27
2019-03-15T07:03:08.653Z,79.69
2019-03-15T07:04:08.621Z,80.00
2019-03-15T07:05:11.857Z,79.90
2019-03-15T07:06:08.595Z,80.10
2019-03-15T07:07:08.587Z,79.65
2019-03-15T07:08:08.582Z,78.83
2019-03-15T07:09:08.565Z,79.65
2019-03-15T07:10:08.587Z,79.55
2019-03-15T07:11:08.541Z,79.48
2019-03-15T07:12:09.737Z,79.69
2019-03-15T07:13:08.594Z,79.65
2019-03-15T07:14:08.507Z,79.07
2019-03-15T07:15:09.743Z,79.55
2019-03-15T07:16:08.490Z,79.17
2019-03-15T07:17:08.479Z,79.48
2019-03-15T07:18:08.477Z,78.93
2019-03-15T07:19:08.454Z,80.00
2019-03-15T07:20:08.492Z,79.48
2019-03-15T07:21:08.432Z,79.14
2019-03-15T07:22:08.419Z,79.07
2019-03-15T07:23:08.409Z,79.86
2019-03-15T07:24:08.397Z,79.69
2019-03-15T07:25:08.384Z,79.90
2019-03-15T07:26:08.404Z,80.00
2019-03-15T07:27:13.330Z,79.62
2019-03-15T07:28:09.348Z,79.17
2019-03-15T07:29:08.337Z,80.24
2019-03-15T07:30:08.329Z,80.04
2019-03-15T07:31:08.338Z,79.72
2019-03-15T07:32:08.306Z,79.58
2019-03-15T07:33:08.293Z,80.44
2019-03-15T07:34:08.282Z,80.44
2019-03-15T07:35:08.272Z,79.72
2019-03-15T07:36:08.288Z,80.72
2019-03-15T07:37:08.248Z,80.96
2019-03-15T07:38:08.242Z,81.48
2019-03-15T07:39:08.227Z,80.96
2019-03-15T07:40:08.229Z,80.96
2019-03-15T07:41:08.229Z,80.72
2019-03-15T07:42:08.199Z,80.86
2019-03-15T07:43:08.181Z,81.13
2019-03-15T07:44:08.170Z,81.34
2019-03-15T07:45:08.163Z,81.23
2019-03-15T07:46:08.167Z,81.99
2019-03-15T07:47:08.141Z,82.30
2019-03-15T07:48:21.389Z,82.92
2019-03-15T07:49:09.112Z,83.23
2019-03-15T07:50:08.105Z,84.36
2019-03-15T07:51:08.114Z,84.47
2019-03-15T07:52:08.081Z,83.95
2019-03-15T07:53:08.072Z,84.57
2019-03-15T07:54:08.059Z,84.47
2019-03-15T07:55:08.072Z,86.02
2019-03-15T07:56:08.042Z,84.99
2019-03-15T07:57:08.029Z,84.92
2019-03-15T07:58:08.037Z,84.78
2019-03-15T07:59:08.006Z,85.75
2019-03-15T08:00:07.991Z,85.39
2019-03-15T08:01:07.980Z,84.61
2019-03-15T08:02:07.973Z,85.30
2019-03-15T08:03:07.972Z,86.12
2019-03-15T08:04:16.868Z,86.84
2019-03-15T08:05:08.935Z,85.95
2019-03-15T08:06:07.923Z,85.95
2019-03-15T08:07:07.913Z,85.54
2019-03-15T08:08:07.924Z,85.75
2019-03-15T08:09:07.920Z,86.57
2019-03-15T08:10:07.921Z,85.75
2019-03-15T08:11:07.867Z,86.22
2019-03-15T08:12:07.856Z,85.39
2019-03-15T08:13:07.846Z,86.74
2019-03-15T08:14:07.859Z,86.57
2019-03-15T08:15:07.826Z,87.05
2019-03-15T08:16:07.813Z,87.05
2019-03-15T08:17:07.908Z,86.84
2019-03-15T08:18:07.791Z,87.35
2019-03-15T08:19:07.801Z,88.08
2019-03-15T08:20:07.768Z,87.81
2019-03-15T08:21:07.759Z,87.77
2019-03-15T08:22:07.747Z,88.59
2019-03-15T08:23:08.814Z,87.29
2019-03-15T08:24:07.749Z,87.46
2019-03-15T08:25:07.758Z,87.35
2019-03-15T08:26:07.744Z,88.08
2019-03-15T08:27:07.689Z,88.08
2019-03-15T08:28:07.682Z,88.49
2019-03-15T08:29:09.602Z,88.08
2019-03-15T08:30:07.657Z,88.70
2019-03-15T08:31:07.674Z,88.90
2019-03-15T08:32:07.638Z,89.22
2019-03-15T08:33:10.592Z,88.90
2019-03-15T08:34:07.612Z,88.59
2019-03-15T08:35:07.600Z,89.94
2019-03-15T08:36:07.613Z,89.42
2019-03-15T08:37:07.579Z,89.73
2019-03-15T08:38:07.593Z,90.35
2019-03-15T08:39:07.558Z,90.35
2019-03-15T08:40:07.553Z,90.04
2019-03-15T08:41:07.535Z,89.73
2019-03-15T08:42:07.521Z,89.01
2019-03-15T08:43:07.536Z,89.94
2019-03-15T08:44:07.497Z,90.25
2019-03-15T08:45:07.490Z,90.35
2019-03-15T08:46:07.477Z,90.35
2019-03-15T08:47:07.490Z,89.32
2019-03-15T08:48:07.456Z,90.35
2019-03-15T08:49:07.444Z,90.14
2019-03-15T08:50:07.437Z,89.94
2019-03-15T08:51:10.441Z,90.76
2019-03-15T08:52:07.409Z,90.55
2019-03-15T08:53:07.396Z,90.97
2019-03-15T08:54:07.385Z,90.55
2019-03-15T08:55:07.377Z,90.76
2019-03-15T08:56:07.391Z,91.07
2019-03-15T08:57:07.353Z,90.76
2019-03-15T08:58:14.320Z,90.76
2019-03-15T08:59:08.327Z,91.89
2019-03-15T09:00:07.318Z,91.28
2019-03-15T09:01:07.306Z,91.52
2019-03-15T09:02:07.302Z,91.79
2019-03-15T09:03:07.313Z,91.73
2019-03-15T09:04:07.283Z,92.41
2019-03-15T09:05:07.261Z,92.51
2019-03-15T09:06:07.251Z,91.79
2019-03-15T09:07:07.238Z,91.48
2019-03-15T09:08:07.273Z,91.89
2019-03-15T09:09:07.216Z,91.48
2019-03-15T09:10:21.280Z,92.61
2019-03-15T09:11:08.193Z,92.51
2019-03-15T09:12:07.184Z,92.21
2019-03-15T09:13:07.199Z,92.93
2019-03-15T09:14:07.231Z,92.31
2019-03-15T09:15:07.149Z,92.41
2019-03-15T09:16:07.138Z,92.00
2019-03-15T09:17:07.129Z,92.21
2019-03-15T09:18:07.143Z,92.93
2019-03-15T09:19:07.106Z,92.61
2019-03-15T09:20:07.115Z,92.51
2019-03-15T09:21:07.084Z,92.31
2019-03-15T09:22:07.074Z,91.89
2019-03-15T09:23:07.063Z,91.63
2019-03-15T09:24:07.049Z,92.00
2019-03-15T09:25:18.656Z,91.96
2019-03-15T09:26:10.412Z,91.48
2019-03-15T09:27:10.247Z,91.38
2019-03-15T09:28:07.030Z,91.79
2019-03-15T09:29:06.997Z,92.00
2019-03-15T09:30:06.981Z,91.75
2019-03-15T09:31:07.691Z,91.96
2019-03-15T09:32:09.383Z,91.85
2019-03-15T09:33:06.951Z,90.51
2019-03-15T09:34:06.936Z,91.13
2019-03-15T09:35:06.947Z,90.92
2019-03-15T09:36:06.945Z,90.92
2019-03-15T09:37:06.935Z,90.92
2019-03-15T09:38:10.196Z,90.78
2019-03-15T09:39:06.885Z,91.09
2019-03-15T09:40:06.895Z,91.30
2019-03-15T09:41:06.865Z,91.09
2019-03-15T09:42:06.864Z,91.09
2019-03-15T09:43:06.837Z,90.78
2019-03-15T09:44:06.823Z,90.72
2019-03-15T09:45:06.836Z,90.72
2019-03-15T09:46:06.833Z,91.85
2019-03-15T09:47:06.793Z,92.02
2019-03-15T09:48:06.778Z,90.99
2019-03-15T09:49:06.768Z,91.03
2019-03-15T09:50:20.602Z,91.44
2019-03-15T09:51:07.770Z,91.71
2019-03-15T09:52:06.764Z,90.99
2019-03-15T09:53:06.724Z,91.85
2019-03-15T09:54:06.731Z,91.75
2019-03-15T09:55:06.699Z,91.44
2019-03-15T09:56:06.692Z,90.92
2019-03-15T09:57:06.677Z,92.02
2019-03-15T09:58:06.741Z,91.44
2019-03-15T09:59:06.654Z,91.24
2019-03-15T10:00:06.643Z,90.57
2019-03-15T10:01:06.873Z,90.92
2019-03-15T10:02:07.940Z,91.19
2019-03-15T10:03:06.619Z,91.60
2019-03-15T10:04:06.600Z,91.50
2019-03-15T10:05:11.403Z,90.99
2019-03-15T10:06:15.070Z,92.12
2019-03-15T10:07:07.596Z,91.60
2019-03-15T10:08:06.570Z,91.19
2019-03-15T10:09:06.543Z,91.71
2019-03-15T10:10:13.342Z,91.97
2019-03-15T10:11:07.516Z,92.02
2019-03-15T10:12:06.545Z,91.25
2019-03-15T10:13:06.608Z,90.43
2019-03-15T10:14:06.486Z,91.25
2019-03-15T10:15:07.925Z,90.64
2019-03-15T10:16:06.463Z,90.53
2019-03-15T10:17:06.493Z,91.56
2019-03-15T10:18:06.440Z,91.09
2019-03-15T10:19:06.428Z,90.37
2019-03-15T10:20:06.439Z,90.53
2019-03-15T10:21:09.120Z,91.30
2019-03-15T10:22:06.393Z,90.78
2019-03-15T10:23:06.671Z,91.40
2019-03-15T10:24:06.371Z,91.09
2019-03-15T10:25:06.431Z,91.19
2019-03-15T10:26:06.350Z,92.02
2019-03-15T10:27:06.338Z,91.54
2019-03-15T10:28:06.326Z,91.64
2019-03-15T10:29:15.186Z,92.22
2019-03-15T10:30:07.304Z,91.60
2019-03-15T10:31:06.290Z,92.12
2019-03-15T10:32:06.281Z,92.12
2019-03-15T10:33:06.268Z,92.94
2019-03-15T10:34:06.286Z,92.12
2019-03-15T10:35:06.246Z,92.22
2019-03-15T10:36:06.235Z,92.63
2019-03-15T10:37:06.465Z,92.33
2019-03-15T10:38:06.211Z,92.53
2019-03-15T10:39:06.202Z,92.43
2019-03-15T10:40:06.189Z,92.84
2019-03-15T10:41:06.211Z,92.63
2019-03-15T10:42:06.170Z,92.22
2019-03-15T10:43:06.156Z,92.74
2019-03-15T10:44:06.145Z,92.94
2019-03-15T10:45:06.133Z,92.22
2019-03-15T10:46:06.470Z,92.74
2019-03-15T10:47:06.114Z,92.94
2019-03-15T10:48:08.062Z,92.94
2019-03-15T10:49:06.111Z,92.53
2019-03-15T10:50:06.103Z,92.74
2019-03-15T10:51:06.090Z,92.33
2019-03-15T10:52:06.059Z,92.33
2019-03-15T10:53:06.075Z,92.94
2019-03-15T10:54:06.034Z,92.29
2019-03-15T10:55:06.028Z,92.22
2019-03-15T10:56:06.143Z,92.69
2019-03-15T10:57:05.999Z,91.87
2019-03-15T10:58:06.011Z,92.94
2019-03-15T10:59:06.012Z,91.97
2019-03-15T11:00:05.991Z,92.49
2019-03-15T11:01:05.957Z,92.80
2019-03-15T11:02:05.943Z,91.91
2019-03-15T11:03:05.936Z,91.40
2019-03-15T11:04:05.922Z,92.53
2019-03-15T11:05:05.934Z,92.84
2019-03-15T11:06:05.901Z,91.40
2019-03-15T11:07:05.889Z,91.81
2019-03-15T11:08:05.905Z,91.97
2019-03-15T11:09:05.865Z,91.71
2019-03-15T11:10:05.854Z,92.53
2019-03-15T11:11:05.869Z,92.12
2019-03-15T11:12:05.847Z,91.91
2019-03-15T11:13:05.819Z,92.84
2019-03-15T11:14:05.811Z,92.49
2019-03-15T11:15:05.825Z,92.18
2019-03-15T11:16:05.785Z,92.49
2019-03-15T11:17:05.775Z,92.74
2019-03-15T11:18:05.762Z,93.31
2019-03-15T11:19:05.767Z,93.11
2019-03-15T11:20:05.740Z,92.90
2019-03-15T11:21:05.732Z,92.69
2019-03-15T11:22:05.750Z,92.80
2019-03-15T11:23:05.706Z,92.55
2019-03-15T11:24:05.695Z,92.96
2019-03-15T11:25:05.686Z,93.16
2019-03-15T11:26:13.503Z,93.16
2019-03-15T11:27:06.676Z,92.76
2019-03-15T11:28:05.653Z,92.65
2019-03-15T11:29:05.639Z,92.86
2019-03-15T11:30:05.643Z,93.06
2019-03-15T11:31:05.631Z,93.06
2019-03-15T11:32:05.628Z,93.27
2019-03-15T11:33:05.614Z,92.76
2019-03-15T11:34:05.582Z,92.86
2019-03-15T11:35:05.572Z,92.86
2019-03-15T11:36:05.558Z,93.16
2019-03-15T11:37:05.546Z,93.27
2019-03-15T11:38:05.570Z,92.65
2019-03-15T11:39:05.525Z,92.96
2019-03-15T11:40:05.513Z,92.96
2019-03-15T11:41:05.523Z,92.96
2019-03-15T11:42:05.493Z,93.58
2019-03-15T11:43:05.513Z,93.37
2019-03-15T11:44:05.469Z,93.74
2019-03-15T11:45:05.456Z,93.99
2019-03-15T11:46:05.470Z,94.15
2019-03-15T11:47:05.446Z,93.84
2019-03-15T11:48:08.649Z,94.26
2019-03-15T11:49:05.413Z,94.01
2019-03-15T11:50:05.400Z,93.29
2019-03-15T11:51:05.389Z,93.59
2019-03-15T11:52:05.378Z,94.01
2019-03-15T11:53:05.388Z,93.86
2019-03-15T11:54:05.373Z,93.76
2019-03-15T11:55:05.360Z,93.24
2019-03-15T11:56:05.330Z,92.73
2019-03-15T11:57:05.321Z,92.93
2019-03-15T11:58:05.332Z,93.24
2019-03-15T11:59:05.299Z,93.14
2019-03-15T12:00:05.288Z,93.76
2019-03-15T12:01:05.298Z,93.30
2019-03-15T12:02:05.263Z,92.73
2019-03-15T12:03:05.275Z,93.55
2019-03-15T12:04:05.242Z,93.40
2019-03-15T12:05:05.233Z,93.51
2019-03-15T12:06:05.243Z,93.10
2019-03-15T12:07:05.208Z,92.48
2019-03-15T12:08:05.215Z,93.10
2019-03-15T12:09:05.187Z,93.05
2019-03-15T12:10:05.177Z,92.64
2019-03-15T12:11:05.190Z,92.95
2019-03-15T12:12:05.152Z,92.44
2019-03-15T12:13:05.140Z,92.60
2019-03-15T12:14:05.155Z,93.05
2019-03-15T12:15:05.118Z,93.12
2019-03-15T12:16:05.134Z,92.80
2019-03-15T12:17:05.095Z,92.80
2019-03-15T12:18:08.235Z,92.66
2019-03-15T12:19:05.076Z,92.66
2019-03-15T12:20:05.062Z,93.07
2019-03-15T12:21:05.051Z,93.12
2019-03-15T12:22:06.599Z,93.27
2019-03-15T12:23:05.050Z,92.80
2019-03-15T12:24:05.136Z,93.17
2019-03-15T12:25:05.004Z,93.07
2019-03-15T12:26:04.995Z,93.38
2019-03-15T12:27:04.986Z,93.48
2019-03-15T12:28:04.993Z,92.55
2019-03-15T12:29:04.976Z,92.66
2019-03-15T12:30:04.948Z,93.07
2019-03-15T12:31:04.941Z,92.76
2019-03-15T12:32:04.952Z,93.07
2019-03-15T12:33:04.915Z,92.46
2019-03-15T12:34:04.904Z,92.86
2019-03-15T12:35:04.895Z,93.07
2019-03-15T12:36:04.908Z,92.86
2019-03-15T12:37:04.872Z,93.68
2019-03-15T12:38:04.858Z,93.38
2019-03-15T12:39:04.847Z,92.76
2019-03-15T12:40:04.869Z,93.33
2019-03-15T12:41:04.825Z,93.95
2019-03-15T12:42:04.817Z,93.54
2019-03-15T12:43:04.801Z,93.68
2019-03-15T12:44:04.790Z,93.89
2019-03-15T12:45:04.805Z,93.54
2019-03-15T12:46:04.771Z,93.17
2019-03-15T12:47:06.232Z,93.89
2019-03-15T12:48:04.748Z,94.40
2019-03-15T12:49:04.737Z,94.56
2019-03-15T12:50:04.746Z,93.79
2019-03-15T12:51:04.711Z,94.30
2019-03-15T12:52:04.774Z,94.30